Glenwood Springs, Colorado
Current Conditions -  °F | °C
As of 1:36 AM on Sunday 23 Nov 2014 (Local Time) from K5SM Reporting Station
Light Snow Light Snow  
Wind Chill: 17°   Ceiling: 200
Heat Index: 23°   Visibility: 0.75mi
Dew Point: 21°   Wind: 5mph
Humidity: 93%   Direction: 250°WSW
Pressure: 29.78"   Gusts: NA
Location:  39.55°N, 107.32°W
Report Text: K5SM 230836Z AUTO 25004KT 3/4SM -SN OVC002 M05/M06 A2978 RMK AO2
Loading
Personal Weather Stations






























Interactive Weather Map New forecast layout! Learn more

10-Day Weather Forecast

Advertisements
Track Severe Weather on mobile